This is the latest recevied weather packets stored in our database for station/object K1AWR. If no packets are shown the sender has not sent any weather packets the latest 10 day(s).
| Time | Temp. | Humidity | Pressure | Rain* | Wind** | Luminosity | Snow |
|---|---|---|---|---|---|---|---|
| 1777332916 | 18.33° C | 42% | 1023.7 hPa | 0 mm | - | 6 W/m² | - |
| 1777332615 | 18.33° C | 42% | 1023.6 hPa | 0 mm | - | 7 W/m² | - |
| 1777332310 | 18.89° C | 40% | 1023.5 hPa | 0 mm | - | 10 W/m² | - |
| 1777332007 | 19.44° C | 34% | 1023.5 hPa | 0 mm | - | 13 W/m² | - |
| 1777331705 | 20° C | 32% | 1023.3 hPa | 0 mm | - | 15 W/m² | - |
| 1777331401 | 20.56° C | 31% | 1023.2 hPa | 0 mm | - | 17 W/m² | - |
| 1777331099 | 20.56° C | 31% | 1023.2 hPa | 0 mm | - | 19 W/m² | - |
| 1777330796 | 20.56° C | 31% | 1023.1 hPa | 0 mm | - | 21 W/m² | - |
| 1777330493 | 20.56° C | 30% | 1023.1 hPa | 0 mm | - | 24 W/m² | - |
| 1777330190 | 20.56° C | 31% | 1023.1 hPa | 0 mm | - | 25 W/m² | - |
| 1777329889 | 21.11° C | 32% | 1023.2 hPa | 0 mm | - | 27 W/m² | - |
| 1777329587 | 21.11° C | 30% | 1023.1 hPa | 0 mm | - | 29 W/m² | - |
| 1777329285 | 21.11° C | 30% | 1023 hPa | 0 mm | - | 30 W/m² | - |
| 1777328982 | 21.11° C | 30% | 1023.2 hPa | 0 mm | - | 33 W/m² | - |
| 1777328680 | 21.67° C | 31% | 1023.1 hPa | 0 mm | - | 40 W/m² | - |
| 1777328377 | 21.67° C | 29% | 1023.3 hPa | 0 mm | - | 40 W/m² | - |
| 1777328076 | 22.22° C | 28% | 1023.4 hPa | 0 mm | - | 51 W/m² | - |
| 1777327773 | 22.22° C | 28% | 1023.5 hPa | 0 mm | - | 54 W/m² | - |
| 1777327471 | 22.78° C | 26% | 1023.7 hPa | 0 mm | - | 45 W/m² | - |
| 1777327168 | 22.22° C | 32% | 1023.3 hPa | 0 mm | - | 68 W/m² | - |
| 1777326865 | 22.78° C | 27% | 1023.4 hPa | 0 mm | - | 98 W/m² | - |
| 1777326562 | 23.33° C | 27% | 1023.4 hPa | 0 mm | - | 118 W/m² | - |
| 1777326259 | 23.33° C | 27% | 1023.3 hPa | 0 mm | - | 98 W/m² | - |
| 1777325956 | 22.22° C | 32% | 1023.4 hPa | 0 mm | - | 86 W/m² | - |
| 1777325655 | 22.78° C | 29% | 1023.5 hPa | 0 mm | - | 80 W/m² | - |
* Rain latest hour (hover to see other rain measurements)
** Current wind speed in m/s (hover to see current wind gust speed)